sensor_id;sensor_type;location;lat;lon;timestamp;pressure;altitude;pressure_sealevel;temperature;humidity
17855;BME280;9053;53.358;6.382;2023-02-19T00:01:50;101418.97;;;9.83;100.00
17855;BME280;9053;53.358;6.382;2023-02-19T00:04:21;101423.47;;;9.86;100.00
17855;BME280;9053;53.358;6.382;2023-02-19T00:06:51;101421.88;;;9.89;100.00
17855;BME280;9053;53.358;6.382;2023-02-19T00:09:24;101429.84;;;9.91;100.00
17855;BME280;9053;53.358;6.382;2023-02-19T00:11:54;101424.56;;;9.91;100.00
17855;BME280;9053;53.358;6.382;2023-02-19T00:14:24;101422.00;;;9.92;100.00
17855;BME280;9053;53.358;6.382;2023-02-19T00:16:54;101425.56;;;9.93;100.00
17855;BME280;9053;53.358;6.382;2023-02-19T00:19:24;101424.78;;;9.95;100.00
17855;BME280;9053;53.358;6.382;2023-02-19T00:21:53;101428.31;;;9.96;100.00
17855;BME280;9053;53.358;6.382;2023-02-19T00:24:26;101422.16;;;9.95;100.00
17855;BME280;9053;53.358;6.382;2023-02-19T00:26:56;101422.16;;;9.95;100.00
17855;BME280;9053;53.358;6.382;2023-02-19T00:29:26;101429.22;;;9.96;100.00
17855;BME280;9053;53.358;6.382;2023-02-19T00:31:56;101429.28;;;9.98;100.00
17855;BME280;9053;53.358;6.382;2023-02-19T00:34:26;101433.63;;;9.97;100.00
17855;BME280;9053;53.358;6.382;2023-02-19T00:36:56;101432.72;;;9.97;100.00
17855;BME280;9053;53.358;6.382;2023-02-19T00:39:28;101434.47;;;9.96;100.00
17855;BME280;9053;53.358;6.382;2023-02-19T00:41:58;101435.44;;;9.99;100.00
17855;BME280;9053;53.358;6.382;2023-02-19T00:44:29;101431.97;;;10.00;100.00
17855;BME280;9053;53.358;6.382;2023-02-19T00:46:59;101433.69;;;9.99;100.00
17855;BME280;9053;53.358;6.382;2023-02-19T00:49:29;101431.16;;;10.01;100.00
17855;BME280;9053;53.358;6.382;2023-02-19T00:52:17;101425.06;;;10.02;100.00
17855;BME280;9053;53.358;6.382;2023-02-19T00:55:10;101426.72;;;10.00;100.00
17855;BME280;9053;53.358;6.382;2023-02-19T00:57:57;101436.06;;;9.93;100.00
17855;BME280;9053;53.358;6.382;2023-02-19T01:00:28;101457.50;;;9.83;100.00
17855;BME280;9053;53.358;6.382;2023-02-19T01:03:01;101453.69;;;9.58;100.00
17855;BME280;9053;53.358;6.382;2023-02-19T01:05:31;101465.34;;;9.27;100.00
17855;BME280;9053;53.358;6.382;2023-02-19T01:08:15;101465.78;;;9.01;100.00
17855;BME280;9053;53.358;6.382;2023-02-19T01:10:49;101462.81;;;8.77;100.00
17855;BME280;9053;53.358;6.382;2023-02-19T01:13:19;101457.88;;;8.49;100.00
17855;BME280;9053;53.358;6.382;2023-02-19T01:15:49;101460.53;;;8.34;100.00
17855;BME280;9053;53.358;6.382;2023-02-19T01:18:20;101473.56;;;8.16;100.00
17855;BME280;9053;53.358;6.382;2023-02-19T01:20:49;101466.78;;;8.03;100.00
17855;BME280;9053;53.358;6.382;2023-02-19T01:23:19;101471.53;;;7.94;100.00
17855;BME280;9053;53.358;6.382;2023-02-19T01:25:52;101479.88;;;7.87;100.00
17855;BME280;9053;53.358;6.382;2023-02-19T01:28:22;101487.47;;;7.82;100.00
17855;BME280;9053;53.358;6.382;2023-02-19T01:30:51;101496.69;;;7.75;100.00
17855;BME280;9053;53.358;6.382;2023-02-19T01:33:21;101499.06;;;7.71;100.00
17855;BME280;9053;53.358;6.382;2023-02-19T01:35:51;101497.91;;;7.66;100.00
17855;BME280;9053;53.358;6.382;2023-02-19T01:38:21;101498.41;;;7.58;100.00
17855;BME280;9053;53.358;6.382;2023-02-19T01:40:59;101492.91;;;7.54;100.00
17855;BME280;9053;53.358;6.382;2023-02-19T01:43:31;101496.03;;;7.48;100.00
17855;BME280;9053;53.358;6.382;2023-02-19T01:46:01;101488.84;;;7.44;100.00
17855;BME280;9053;53.358;6.382;2023-02-19T01:48:34;101492.75;;;7.36;100.00
17855;BME280;9053;53.358;6.382;2023-02-19T01:51:08;101492.66;;;7.34;100.00
17855;BME280;9053;53.358;6.382;2023-02-19T01:53:43;101493.56;;;7.35;100.00
17855;BME280;9053;53.358;6.382;2023-02-19T02:12:27;101511.44;;;7.27;100.00
17855;BME280;9053;53.358;6.382;2023-02-19T02:15:05;101513.97;;;7.26;100.00
17855;BME280;9053;53.358;6.382;2023-02-19T02:17:55;101517.38;;;7.25;100.00
17855;BME280;9053;53.358;6.382;2023-02-19T02:20:53;101513.03;;;7.25;100.00
17855;BME280;9053;53.358;6.382;2023-02-19T02:23:53;101516.31;;;7.21;100.00
17855;BME280;9053;53.358;6.382;2023-02-19T02:27:07;101520.66;;;7.21;100.00
17855;BME280;9053;53.358;6.382;2023-02-19T02:30:14;101512.53;;;7.16;100.00
17855;BME280;9053;53.358;6.382;2023-02-19T02:32:52;101530.75;;;7.14;100.00
17855;BME280;9053;53.358;6.382;2023-02-19T02:35:27;101530.47;;;7.10;100.00
17855;BME280;9053;53.358;6.382;2023-02-19T02:41:41;101553.22;;;7.11;100.00
17855;BME280;9053;53.358;6.382;2023-02-19T02:44:12;101551.41;;;7.10;100.00
17855;BME280;9053;53.358;6.382;2023-02-19T02:46:45;101557.63;;;7.12;100.00
17855;BME280;9053;53.358;6.382;2023-02-19T02:49:20;101561.06;;;7.11;100.00
17855;BME280;9053;53.358;6.382;2023-02-19T02:51:52;101574.16;;;7.11;100.00
17855;BME280;9053;53.358;6.382;2023-02-19T02:54:26;101571.25;;;7.06;100.00
17855;BME280;9053;53.358;6.382;2023-02-19T02:57:12;101576.38;;;7.05;100.00
17855;BME280;9053;53.358;6.382;2023-02-19T02:59:43;101575.19;;;7.00;100.00
17855;BME280;9053;53.358;6.382;2023-02-19T03:06:08;101603.78;;;6.97;100.00
17855;BME280;9053;53.358;6.382;2023-02-19T03:09:10;101610.47;;;6.91;100.00
17855;BME280;9053;53.358;6.382;2023-02-19T03:11:44;101613.91;;;6.90;100.00
17855;BME280;9053;53.358;6.382;2023-02-19T03:14:32;101615.50;;;6.88;100.00
17855;BME280;9053;53.358;6.382;2023-02-19T03:17:21;101613.50;;;6.84;100.00
17855;BME280;9053;53.358;6.382;2023-02-19T03:20:20;101622.06;;;6.82;100.00
17855;BME280;9053;53.358;6.382;2023-02-19T03:22:55;101625.75;;;6.85;100.00
17855;BME280;9053;53.358;6.382;2023-02-19T03:25:28;101639.66;;;6.84;100.00
17855;BME280;9053;53.358;6.382;2023-02-19T03:28:13;101642.44;;;6.87;100.00
17855;BME280;9053;53.358;6.382;2023-02-19T03:30:46;101644.28;;;6.88;100.00
17855;BME280;9053;53.358;6.382;2023-02-19T03:33:21;101653.72;;;6.86;100.00
17855;BME280;9053;53.358;6.382;2023-02-19T03:35:57;101665.91;;;6.86;100.00
17855;BME280;9053;53.358;6.382;2023-02-19T03:38:37;101660.38;;;6.81;100.00
17855;BME280;9053;53.358;6.382;2023-02-19T03:41:13;101665.22;;;6.75;100.00
17855;BME280;9053;53.358;6.382;2023-02-19T03:43:49;101671.38;;;6.76;100.00
17855;BME280;9053;53.358;6.382;2023-02-19T03:46:25;101681.63;;;6.72;100.00
17855;BME280;9053;53.358;6.382;2023-02-19T03:49:05;101679.81;;;6.71;100.00
17855;BME280;9053;53.358;6.382;2023-02-19T03:51:41;101683.34;;;6.72;100.00
17855;BME280;9053;53.358;6.382;2023-02-19T03:54:18;101678.03;;;6.70;100.00
17855;BME280;9053;53.358;6.382;2023-02-19T03:57:07;101686.66;;;6.69;100.00
17855;BME280;9053;53.358;6.382;2023-02-19T03:59:48;101687.56;;;6.70;100.00
17855;BME280;9053;53.358;6.382;2023-02-19T04:02:25;101698.00;;;6.70;100.00
17855;BME280;9053;53.358;6.382;2023-02-19T04:05:14;101698.94;;;6.70;100.00
17855;BME280;9053;53.358;6.382;2023-02-19T04:07:48;101710.59;;;6.76;100.00
17855;BME280;9053;53.358;6.382;2023-02-19T04:10:21;101710.47;;;6.74;100.00
17855;BME280;9053;53.358;6.382;2023-02-19T04:12:55;101723.56;;;6.74;100.00
17855;BME280;9053;53.358;6.382;2023-02-19T04:15:29;101730.00;;;6.66;100.00
17855;BME280;9053;53.358;6.382;2023-02-19T04:18:03;101743.69;;;6.62;100.00
17855;BME280;9053;53.358;6.382;2023-02-19T04:20:39;101739.09;;;6.58;100.00
17855;BME280;9053;53.358;6.382;2023-02-19T04:23:11;101734.66;;;6.57;100.00
17855;BME280;9053;53.358;6.382;2023-02-19T04:25:47;101740.78;;;6.57;100.00
17855;BME280;9053;53.358;6.382;2023-02-19T04:28:18;101752.94;;;6.57;100.00
17855;BME280;9053;53.358;6.382;2023-02-19T04:30:48;101750.25;;;6.55;100.00
17855;BME280;9053;53.358;6.382;2023-02-19T04:33:18;101761.78;;;6.59;100.00
17855;BME280;9053;53.358;6.382;2023-02-19T04:35:48;101765.22;;;6.58;100.00
17855;BME280;9053;53.358;6.382;2023-02-19T04:38:18;101765.09;;;6.56;100.00
17855;BME280;9053;53.358;6.382;2023-02-19T04:40:50;101762.50;;;6.56;100.00
17855;BME280;9053;53.358;6.382;2023-02-19T04:43:20;101768.44;;;6.54;100.00
17855;BME280;9053;53.358;6.382;2023-02-19T04:45:50;101771.81;;;6.53;100.00
17855;BME280;9053;53.358;6.382;2023-02-19T04:48:20;101777.06;;;6.53;100.00
17855;BME280;9053;53.358;6.382;2023-02-19T04:50:50;101777.69;;;6.48;100.00
17855;BME280;9053;53.358;6.382;2023-02-19T04:53:20;101779.59;;;6.51;100.00
17855;BME280;9053;53.358;6.382;2023-02-19T04:55:52;101785.91;;;6.55;100.00
17855;BME280;9053;53.358;6.382;2023-02-19T04:58:22;101792.16;;;6.57;100.00
17855;BME280;9053;53.358;6.382;2023-02-19T05:00:52;101805.03;;;6.54;100.00
17855;BME280;9053;53.358;6.382;2023-02-19T05:03:22;101803.41;;;6.56;100.00
17855;BME280;9053;53.358;6.382;2023-02-19T05:05:51;101810.63;;;6.60;100.00
17855;BME280;9053;53.358;6.382;2023-02-19T05:08:22;101816.88;;;6.62;100.00
17855;BME280;9053;53.358;6.382;2023-02-19T05:10:56;101829.66;;;6.70;100.00
17855;BME280;9053;53.358;6.382;2023-02-19T05:13:26;101833.47;;;6.76;100.00
17855;BME280;9053;53.358;6.382;2023-02-19T05:15:57;101845.72;;;6.77;100.00
17855;BME280;9053;53.358;6.382;2023-02-19T05:18:29;101857.19;;;6.79;100.00
17855;BME280;9053;53.358;6.382;2023-02-19T05:20:59;101863.50;;;6.82;100.00
17855;BME280;9053;53.358;6.382;2023-02-19T05:23:30;101856.88;;;6.87;100.00
17855;BME280;9053;53.358;6.382;2023-02-19T05:26:06;101857.09;;;6.90;100.00
17855;BME280;9053;53.358;6.382;2023-02-19T05:28:36;101860.41;;;6.88;100.00
17855;BME280;9053;53.358;6.382;2023-02-19T05:31:07;101868.75;;;6.82;100.00
17855;BME280;9053;53.358;6.382;2023-02-19T05:33:38;101865.13;;;6.80;100.00
17855;BME280;9053;53.358;6.382;2023-02-19T05:36:11;101867.53;;;6.77;100.00
17855;BME280;9053;53.358;6.382;2023-02-19T05:38:41;101868.34;;;6.76;100.00
17855;BME280;9053;53.358;6.382;2023-02-19T05:41:16;101877.69;;;6.72;100.00
17855;BME280;9053;53.358;6.382;2023-02-19T05:43:47;101882.84;;;6.71;100.00
17855;BME280;9053;53.358;6.382;2023-02-19T05:46:19;101883.75;;;6.71;100.00
17855;BME280;9053;53.358;6.382;2023-02-19T05:48:50;101880.22;;;6.71;100.00
17855;BME280;9053;53.358;6.382;2023-02-19T05:51:23;101888.84;;;6.70;100.00
17855;BME280;9053;53.358;6.382;2023-02-19T05:53:53;101900.13;;;6.69;100.00
17855;BME280;9053;53.358;6.382;2023-02-19T05:56:30;101904.25;;;6.65;100.00
17855;BME280;9053;53.358;6.382;2023-02-19T05:59:01;101913.59;;;6.62;100.00
17855;BME280;9053;53.358;6.382;2023-02-19T06:01:34;101913.38;;;6.59;100.00
17855;BME280;9053;53.358;6.382;2023-02-19T06:04:07;101917.53;;;6.55;100.00
17855;BME280;9053;53.358;6.382;2023-02-19T06:06:38;101933.19;;;6.55;100.00
17855;BME280;9053;53.358;6.382;2023-02-19T06:09:09;101933.19;;;6.55;100.00
17855;BME280;9053;53.358;6.382;2023-02-19T06:11:50;101953.19;;;6.55;100.00
17855;BME280;9053;53.358;6.382;2023-02-19T06:14:46;101951.38;;;6.54;100.00
17855;BME280;9053;53.358;6.382;2023-02-19T06:17:16;101955.78;;;6.55;100.00
17855;BME280;9053;53.358;6.382;2023-02-19T06:19:46;101962.16;;;6.58;100.00
17855;BME280;9053;53.358;6.382;2023-02-19T06:22:16;101973.72;;;6.62;100.00
17855;BME280;9053;53.358;6.382;2023-02-19T06:24:46;101977.34;;;6.64;100.00
17855;BME280;9053;53.358;6.382;2023-02-19T06:27:18;101985.50;;;6.68;100.00
17855;BME280;9053;53.358;6.382;2023-02-19T06:29:48;101988.19;;;6.70;100.00
17855;BME280;9053;53.358;6.382;2023-02-19T06:32:19;101985.81;;;6.73;100.00
17855;BME280;9053;53.358;6.382;2023-02-19T06:34:49;101985.19;;;6.77;100.00
17855;BME280;9053;53.358;6.382;2023-02-19T06:37:18;101995.06;;;6.81;100.00
17855;BME280;9053;53.358;6.382;2023-02-19T06:39:48;102004.63;;;6.81;100.00
17855;BME280;9053;53.358;6.382;2023-02-19T06:42:21;102015.09;;;6.81;100.00
17855;BME280;9053;53.358;6.382;2023-02-19T06:44:51;102012.75;;;6.85;100.00
17855;BME280;9053;53.358;6.382;2023-02-19T06:47:21;102012.19;;;6.89;100.00
17855;BME280;9053;53.358;6.382;2023-02-19T06:49:51;102027.47;;;6.97;100.00
17855;BME280;9053;53.358;6.382;2023-02-19T06:52:21;102022.56;;;7.01;100.00
17855;BME280;9053;53.358;6.382;2023-02-19T06:54:50;102028.13;;;7.06;100.00
17855;BME280;9053;53.358;6.382;2023-02-19T06:57:23;102032.72;;;7.10;100.00
17855;BME280;9053;53.358;6.382;2023-02-19T06:59:53;102048.72;;;7.14;100.00
17855;BME280;9053;53.358;6.382;2023-02-19T07:02:23;102045.53;;;7.19;100.00
17855;BME280;9053;53.358;6.382;2023-02-19T07:04:53;102051.06;;;7.23;100.00
17855;BME280;9053;53.358;6.382;2023-02-19T07:07:22;102043.44;;;7.26;100.00
17855;BME280;9053;53.358;6.382;2023-02-19T07:09:52;102056.00;;;7.32;100.00
17855;BME280;9053;53.358;6.382;2023-02-19T07:12:25;102046.53;;;7.34;100.00
17855;BME280;9053;53.358;6.382;2023-02-19T07:14:55;102044.25;;;7.39;100.00
17855;BME280;9053;53.358;6.382;2023-02-19T07:17:24;102053.06;;;7.41;100.00
17855;BME280;9053;53.358;6.382;2023-02-19T07:19:54;102051.56;;;7.44;100.00
17855;BME280;9053;53.358;6.382;2023-02-19T07:22:24;102046.44;;;7.46;100.00
17855;BME280;9053;53.358;6.382;2023-02-19T07:24:54;102032.53;;;7.47;100.00
17855;BME280;9053;53.358;6.382;2023-02-19T07:27:26;102021.25;;;7.48;100.00
17855;BME280;9053;53.358;6.382;2023-02-19T07:29:56;102023.88;;;7.48;100.00
17855;BME280;9053;53.358;6.382;2023-02-19T07:32:26;102033.63;;;7.50;100.00
17855;BME280;9053;53.358;6.382;2023-02-19T07:34:56;102027.50;;;7.50;100.00
17855;BME280;9053;53.358;6.382;2023-02-19T07:37:43;102036.38;;;7.52;100.00
17855;BME280;9053;53.358;6.382;2023-02-19T07:40:13;102045.25;;;7.54;100.00
17855;BME280;9053;53.358;6.382;2023-02-19T07:42:46;102047.94;;;7.55;100.00
17855;BME280;9053;53.358;6.382;2023-02-19T07:45:16;102047.16;;;7.56;100.00
17855;BME280;9053;53.358;6.382;2023-02-19T07:47:46;102048.16;;;7.58;100.00
17855;BME280;9053;53.358;6.382;2023-02-19T07:50:16;102053.41;;;7.58;100.00
17855;BME280;9053;53.358;6.382;2023-02-19T07:52:46;102071.09;;;7.63;100.00
17855;BME280;9053;53.358;6.382;2023-02-19T07:55:15;102071.28;;;7.66;100.00
17855;BME280;9053;53.358;6.382;2023-02-19T07:57:48;102078.66;;;7.71;100.00
17855;BME280;9053;53.358;6.382;2023-02-19T08:00:18;102083.28;;;7.75;100.00
17855;BME280;9053;53.358;6.382;2023-02-19T08:02:48;102072.28;;;7.81;100.00
17855;BME280;9053;53.358;6.382;2023-02-19T08:05:30;102087.41;;;7.85;100.00
17855;BME280;9053;53.358;6.382;2023-02-19T08:08:00;102096.38;;;7.89;100.00
17855;BME280;9053;53.358;6.382;2023-02-19T08:10:30;102098.19;;;7.90;100.00
17855;BME280;9053;53.358;6.382;2023-02-19T08:13:25;102102.72;;;7.92;100.00
17855;BME280;9053;53.358;6.382;2023-02-19T08:16:09;102115.22;;;7.96;100.00
17855;BME280;9053;53.358;6.382;2023-02-19T08:18:49;102122.44;;;8.00;100.00
17855;BME280;9053;53.358;6.382;2023-02-19T08:21:20;102127.88;;;8.03;100.00
17855;BME280;9053;53.358;6.382;2023-02-19T08:23:50;102132.31;;;8.05;100.00
17855;BME280;9053;53.358;6.382;2023-02-19T08:26:20;102126.97;;;8.03;100.00
17855;BME280;9053;53.358;6.382;2023-02-19T08:28:52;102132.22;;;8.03;100.00
17855;BME280;9053;53.358;6.382;2023-02-19T08:31:22;102147.16;;;8.04;100.00
17855;BME280;9053;53.358;6.382;2023-02-19T08:33:53;102149.97;;;8.07;100.00
17855;BME280;9053;53.358;6.382;2023-02-19T08:36:23;102148.72;;;8.15;100.00
17855;BME280;9053;53.358;6.382;2023-02-19T08:38:53;102150.13;;;8.23;100.00
17855;BME280;9053;53.358;6.382;2023-02-19T08:41:27;102164.19;;;8.39;100.00
17855;BME280;9053;53.358;6.382;2023-02-19T08:44:16;102158.28;;;8.55;100.00
17855;BME280;9053;53.358;6.382;2023-02-19T08:46:46;102163.34;;;8.66;100.00
17855;BME280;9053;53.358;6.382;2023-02-19T08:49:16;102173.72;;;8.78;100.00
17855;BME280;9053;53.358;6.382;2023-02-19T08:51:45;102176.38;;;8.93;100.00
17855;BME280;9053;53.358;6.382;2023-02-19T08:54:15;102192.00;;;9.05;100.00
17855;BME280;9053;53.358;6.382;2023-02-19T08:56:45;102200.69;;;9.19;100.00
17855;BME280;9053;53.358;6.382;2023-02-19T08:59:17;102201.56;;;9.32;100.00
17855;BME280;9053;53.358;6.382;2023-02-19T09:01:47;102210.84;;;9.42;100.00
17855;BME280;9053;53.358;6.382;2023-02-19T09:04:18;102226.19;;;9.49;100.00
17855;BME280;9053;53.358;6.382;2023-02-19T09:06:48;102227.91;;;9.49;100.00
17855;BME280;9053;53.358;6.382;2023-02-19T09:09:18;102227.81;;;9.47;100.00
17855;BME280;9053;53.358;6.382;2023-02-19T09:11:48;102233.06;;;9.47;100.00
17855;BME280;9053;53.358;6.382;2023-02-19T09:14:20;102238.13;;;9.44;100.00
17855;BME280;9053;53.358;6.382;2023-02-19T09:16:50;102242.00;;;9.36;100.00
17855;BME280;9053;53.358;6.382;2023-02-19T09:19:20;102247.69;;;9.29;100.00
17855;BME280;9053;53.358;6.382;2023-02-19T09:21:50;102261.66;;;9.28;100.00
17855;BME280;9053;53.358;6.382;2023-02-19T09:24:20;102257.19;;;9.27;100.00
17855;BME280;9053;53.358;6.382;2023-02-19T09:26:51;102259.03;;;9.28;100.00
17855;BME280;9053;53.358;6.382;2023-02-19T09:29:25;102254.13;;;9.34;100.00
17855;BME280;9053;53.358;6.382;2023-02-19T09:31:56;102261.59;;;9.41;100.00
17855;BME280;9053;53.358;6.382;2023-02-19T09:34:27;102272.38;;;9.46;100.00
17855;BME280;9053;53.358;6.382;2023-02-19T09:36:57;102276.06;;;9.49;100.00
17855;BME280;9053;53.358;6.382;2023-02-19T09:39:27;102283.25;;;9.52;100.00
17855;BME280;9053;53.358;6.382;2023-02-19T09:41:58;102279.88;;;9.54;100.00
17855;BME280;9053;53.358;6.382;2023-02-19T09:44:34;102286.97;;;9.56;100.00
17855;BME280;9053;53.358;6.382;2023-02-19T09:47:07;102280.09;;;9.58;100.00
17855;BME280;9053;53.358;6.382;2023-02-19T09:49:44;102267.94;;;9.60;100.00
17855;BME280;9053;53.358;6.382;2023-02-19T09:52:30;102274.13;;;9.60;100.00
17855;BME280;9053;53.358;6.382;2023-02-19T09:55:12;102278.44;;;9.60;100.00
17855;BME280;9053;53.358;6.382;2023-02-19T09:57:45;102271.22;;;9.56;100.00
17855;BME280;9053;53.358;6.382;2023-02-19T10:00:23;102273.91;;;9.57;100.00
17855;BME280;9053;53.358;6.382;2023-02-19T10:02:59;102282.63;;;9.56;100.00
17855;BME280;9053;53.358;6.382;2023-02-19T10:05:32;102289.50;;;9.54;100.00
17855;BME280;9053;53.358;6.382;2023-02-19T10:08:04;102290.22;;;9.51;100.00
17855;BME280;9053;53.358;6.382;2023-02-19T10:10:37;102292.56;;;9.47;100.00
17855;BME280;9053;53.358;6.382;2023-02-19T10:13:17;102306.59;;;9.47;100.00
17855;BME280;9053;53.358;6.382;2023-02-19T10:15:52;102313.28;;;9.42;100.00
17855;BME280;9053;53.358;6.382;2023-02-19T10:18:24;102324.25;;;9.35;100.00
17855;BME280;9053;53.358;6.382;2023-02-19T10:20:55;102328.38;;;9.31;100.00
17855;BME280;9053;53.358;6.382;2023-02-19T10:23:25;102328.19;;;9.28;100.00
17855;BME280;9053;53.358;6.382;2023-02-19T10:25:57;102338.88;;;9.31;100.00
17855;BME280;9053;53.358;6.382;2023-02-19T10:28:29;102332.91;;;9.34;100.00
17855;BME280;9053;53.358;6.382;2023-02-19T10:31:04;102333.72;;;9.33;100.00
17855;BME280;9053;53.358;6.382;2023-02-19T10:33:48;102348.38;;;9.29;100.00
17855;BME280;9053;53.358;6.382;2023-02-19T10:36:26;102341.03;;;9.24;100.00
17855;BME280;9053;53.358;6.382;2023-02-19T10:38:58;102339.81;;;9.19;100.00
17855;BME280;9053;53.358;6.382;2023-02-19T10:41:29;102344.06;;;9.17;100.00
17855;BME280;9053;53.358;6.382;2023-02-19T10:44:10;102350.31;;;9.19;100.00
17855;BME280;9053;53.358;6.382;2023-02-19T10:46:47;102344.06;;;9.17;100.00
17855;BME280;9053;53.358;6.382;2023-02-19T10:49:21;102345.91;;;9.18;100.00
17855;BME280;9053;53.358;6.382;2023-02-19T10:51:54;102339.75;;;9.17;100.00
17855;BME280;9053;53.358;6.382;2023-02-19T10:54:29;102333.56;;;9.17;100.00
17855;BME280;9053;53.358;6.382;2023-02-19T10:57:22;102344.28;;;9.20;100.00
17855;BME280;9053;53.358;6.382;2023-02-19T10:59:57;102346.91;;;9.20;100.00
17855;BME280;9053;53.358;6.382;2023-02-19T11:02:30;102355.88;;;9.23;100.00
17855;BME280;9053;53.358;6.382;2023-02-19T11:05:16;102364.84;;;9.27;99.86
17855;BME280;9053;53.358;6.382;2023-02-19T11:07:48;102360.59;;;9.29;99.87
17855;BME280;9053;53.358;6.382;2023-02-19T11:10:23;102360.06;;;9.35;99.67
17855;BME280;9053;53.358;6.382;2023-02-19T11:12:56;102353.38;;;9.40;99.78
17855;BME280;9053;53.358;6.382;2023-02-19T11:15:29;102349.25;;;9.43;99.67
17855;BME280;9053;53.358;6.382;2023-02-19T11:18:04;102348.41;;;9.44;99.53
17855;BME280;9053;53.358;6.382;2023-02-19T11:20:35;102353.84;;;9.47;99.51
17855;BME280;9053;53.358;6.382;2023-02-19T11:23:13;102367.00;;;9.47;99.43
17855;BME280;9053;53.358;6.382;2023-02-19T11:25:46;102357.13;;;9.43;99.22
17855;BME280;9053;53.358;6.382;2023-02-19T11:28:31;102347.41;;;9.42;99.06
17855;BME280;9053;53.358;6.382;2023-02-19T11:31:21;102345.63;;;9.41;99.02
17855;BME280;9053;53.358;6.382;2023-02-19T11:33:58;102341.38;;;9.43;98.87
17855;BME280;9053;53.358;6.382;2023-02-19T11:36:32;102339.81;;;9.47;98.65
17855;BME280;9053;53.358;6.382;2023-02-19T11:39:18;102340.94;;;9.50;98.72
17855;BME280;9053;53.358;6.382;2023-02-19T11:41:59;102343.66;;;9.52;98.50
17855;BME280;9053;53.358;6.382;2023-02-19T11:44:44;102347.28;;;9.54;98.42
17855;BME280;9053;53.358;6.382;2023-02-19T11:47:40;102348.56;;;9.61;98.29
17855;BME280;9053;53.358;6.382;2023-02-19T11:50:20;102345.53;;;9.68;98.11
17855;BME280;9053;53.358;6.382;2023-02-19T11:53:02;102343.06;;;9.71;98.00
17855;BME280;9053;53.358;6.382;2023-02-19T11:55:48;102338.19;;;9.77;97.64
17855;BME280;9053;53.358;6.382;2023-02-19T11:58:41;102340.81;;;9.77;97.29
17855;BME280;9053;53.358;6.382;2023-02-19T12:01:21;102338.72;;;9.71;97.02
17855;BME280;9053;53.358;6.382;2023-02-19T12:07:01;102354.44;;;9.57;96.40
17855;BME280;9053;53.358;6.382;2023-02-19T12:09:42;102363.88;;;9.53;96.20
17855;BME280;9053;53.358;6.382;2023-02-19T12:12:23;102370.72;;;9.51;95.85
17855;BME280;9053;53.358;6.382;2023-02-19T12:15:20;102373.97;;;9.47;95.71
17855;BME280;9053;53.358;6.382;2023-02-19T12:18:18;102369.13;;;9.40;95.57
17855;BME280;9053;53.358;6.382;2023-02-19T12:21:01;102374.19;;;9.37;95.37
17855;BME280;9053;53.358;6.382;2023-02-19T12:23:55;102381.00;;;9.33;95.16
17855;BME280;9053;53.358;6.382;2023-02-19T12:26:36;102375.75;;;9.33;94.99
17855;BME280;9053;53.358;6.382;2023-02-19T12:29:29;102390.69;;;9.34;94.88
17855;BME280;9053;53.358;6.382;2023-02-19T12:38:19;102383.31;;;9.28;94.62
17855;BME280;9053;53.358;6.382;2023-02-19T12:41:11;102387.56;;;9.26;94.40
17855;BME280;9053;53.358;6.382;2023-02-19T12:43:52;102391.91;;;9.26;94.30
17855;BME280;9053;53.358;6.382;2023-02-19T12:46:28;102399.69;;;9.24;94.24
17855;BME280;9053;53.358;6.382;2023-02-19T12:49:06;102410.41;;;9.27;94.14
17855;BME280;9053;53.358;6.382;2023-02-19T12:51:43;102396.81;;;9.35;94.09
17855;BME280;9053;53.358;6.382;2023-02-19T12:54:17;102398.66;;;9.36;93.83
17855;BME280;9053;53.358;6.382;2023-02-19T12:56:54;102410.44;;;9.42;93.70
17855;BME280;9053;53.358;6.382;2023-02-19T12:59:28;102413.28;;;9.45;93.67
17855;BME280;9053;53.358;6.382;2023-02-19T13:02:06;102424.69;;;9.46;93.57
17855;BME280;9053;53.358;6.382;2023-02-19T13:04:44;102436.09;;;9.46;93.48
17855;BME280;9053;53.358;6.382;2023-02-19T13:07:19;102439.63;;;9.47;93.42
17855;BME280;9053;53.358;6.382;2023-02-19T13:09:55;102451.84;;;9.46;93.31
17855;BME280;9053;53.358;6.382;2023-02-19T13:12:33;102447.44;;;9.45;93.16
17855;BME280;9053;53.358;6.382;2023-02-19T13:15:13;102443.16;;;9.47;92.98
17855;BME280;9053;53.358;6.382;2023-02-19T13:17:45;102433.38;;;9.45;92.83
17855;BME280;9053;53.358;6.382;2023-02-19T13:20:25;102427.31;;;9.46;92.84
17855;BME280;9053;53.358;6.382;2023-02-19T13:23:00;102425.59;;;9.46;92.79
17855;BME280;9053;53.358;6.382;2023-02-19T13:25:53;102445.00;;;9.48;92.81
17855;BME280;9053;53.358;6.382;2023-02-19T13:28:43;102437.13;;;9.48;92.57
17855;BME280;9053;53.358;6.382;2023-02-19T13:31:33;102433.66;;;9.49;92.49
17855;BME280;9053;53.358;6.382;2023-02-19T13:34:22;102432.75;;;9.49;92.28
17855;BME280;9053;53.358;6.382;2023-02-19T13:36:58;102425.78;;;9.49;92.22
17855;BME280;9053;53.358;6.382;2023-02-19T13:39:29;102415.50;;;9.52;92.18
17855;BME280;9053;53.358;6.382;2023-02-19T13:42:02;102411.22;;;9.54;92.13
17855;BME280;9053;53.358;6.382;2023-02-19T13:44:36;102405.25;;;9.57;92.02
17855;BME280;9053;53.358;6.382;2023-02-19T13:50:17;102401.72;;;9.57;91.86
17855;BME280;9053;53.358;6.382;2023-02-19T13:52:49;102389.59;;;9.59;91.68
17855;BME280;9053;53.358;6.382;2023-02-19T13:55:44;102379.28;;;9.62;91.62
17855;BME280;9053;53.358;6.382;2023-02-19T13:58:38;102365.41;;;9.64;91.50
17855;BME280;9053;53.358;6.382;2023-02-19T14:04:41;102366.06;;;9.60;91.19
17855;BME280;9053;53.358;6.382;2023-02-19T14:07:32;102368.69;;;9.60;91.07
17855;BME280;9053;53.358;6.382;2023-02-19T14:10:11;102358.06;;;9.59;90.79
17855;BME280;9053;53.358;6.382;2023-02-19T14:12:50;102351.03;;;9.58;90.74
17855;BME280;9053;53.358;6.382;2023-02-19T14:15:40;102352.72;;;9.57;90.62
17855;BME280;9053;53.358;6.382;2023-02-19T14:18:41;102345.84;;;9.59;90.61
17855;BME280;9053;53.358;6.382;2023-02-19T14:21:22;102341.72;;;9.63;90.42
17855;BME280;9053;53.358;6.382;2023-02-19T14:23:55;102339.09;;;9.63;90.44
17855;BME280;9053;53.358;6.382;2023-02-19T14:26:26;102343.50;;;9.64;90.39